createdAt,value
2022-09-17T00:00:49.014Z,95406.81
2022-09-17T00:03:16.477Z,95405.19
2022-09-17T00:05:43.869Z,95410.94
2022-09-17T00:08:15.072Z,95425.31
2022-09-17T00:10:44.532Z,95436.22
2022-09-17T00:13:12.528Z,95426.97
2022-09-17T00:15:43.987Z,95423.25
2022-09-17T00:18:11.679Z,95410.50
2022-09-17T00:20:44.187Z,95415.00
2022-09-17T00:23:12.130Z,95409.66
2022-09-17T00:25:44.012Z,95401.44
2022-09-17T00:28:12.177Z,95405.97
2022-09-17T00:30:44.259Z,95399.81
2022-09-17T00:33:16.389Z,95398.38
2022-09-17T00:35:43.752Z,95403.94
2022-09-17T00:38:11.166Z,95387.69
2022-09-17T00:40:38.685Z,95380.91
2022-09-17T00:43:10.372Z,95383.34
2022-09-17T00:45:39.745Z,95398.13
2022-09-17T00:48:06.876Z,95397.69
2022-09-17T00:50:42.268Z,95400.34
2022-09-17T00:53:14.385Z,95383.28
2022-09-17T00:55:45.656Z,95370.53
2022-09-17T00:58:15.602Z,95373.81
2022-09-17T01:00:43.171Z,95359.88
2022-09-17T01:03:09.904Z,95370.16
2022-09-17T01:05:48.916Z,95357.41
2022-09-17T01:08:18.263Z,95359.41
2022-09-17T01:11:13.015Z,95361.06
2022-09-17T01:14:16.364Z,95381.63
2022-09-17T01:17:00.380Z,95395.81
2022-09-17T01:19:32.608Z,95395.63
2022-09-17T01:22:08.212Z,95394.38
2022-09-17T01:24:53.453Z,95398.88
2022-09-17T01:27:35.863Z,95393.13
2022-09-17T01:30:34.770Z,95390.66
2022-09-17T01:33:13.269Z,95364.75
2022-09-17T01:36:02.605Z,95364.31
2022-09-17T01:39:01.594Z,95372.16
2022-09-17T01:41:42.042Z,95362.50
2022-09-17T01:44:12.580Z,95347.50
2022-09-17T01:47:03.236Z,95345.22
2022-09-17T01:49:32.742Z,95335.13
2022-09-17T01:52:01.051Z,95332.25
2022-09-17T01:54:49.294Z,95331.84
2022-09-17T01:57:24.972Z,95335.53
2022-09-17T02:00:04.415Z,95328.97
2022-09-17T02:02:38.745Z,95337.78
2022-09-17T02:05:43.934Z,95348.66
2022-09-17T02:08:18.848Z,95346.81
2022-09-17T02:10:49.762Z,95359.31
2022-09-17T02:13:28.456Z,95367.31
2022-09-17T02:16:06.525Z,95376.34
2022-09-17T02:19:00.881Z,95386.41
2022-09-17T02:21:38.036Z,95397.09
2022-09-17T02:24:19.581Z,95386.41
2022-09-17T02:27:09.272Z,95380.06
2022-09-17T02:29:39.943Z,95369.19
2022-09-17T02:32:06.925Z,95359.72
2022-09-17T02:34:34.677Z,95352.72
2022-09-17T02:37:02.358Z,95343.06
2022-09-17T02:39:29.378Z,95363.81
2022-09-17T02:41:55.957Z,95358.88
2022-09-17T02:44:35.368Z,95358.44
2022-09-17T02:47:08.062Z,95349.22
2022-09-17T02:49:54.030Z,95348.22
2022-09-17T02:52:26.545Z,95348.22
2022-09-17T02:55:25.921Z,95333.00
2022-09-17T02:58:00.451Z,95333.22
2022-09-17T03:00:28.500Z,95333.22
2022-09-17T03:03:09.004Z,95331.56
2022-09-17T03:05:38.209Z,95331.31
2022-09-17T03:08:09.718Z,95320.25
2022-09-17T03:10:36.378Z,95309.75
2022-09-17T03:13:03.240Z,95288.78
2022-09-17T03:15:29.968Z,95281.19
2022-09-17T03:17:56.685Z,95277.06
2022-09-17T03:20:23.525Z,95284.06
2022-09-17T03:22:51.804Z,95297.63
2022-09-17T03:25:18.440Z,95300.03
2022-09-17T03:27:45.081Z,95306.00
2022-09-17T03:30:11.917Z,95318.94
2022-09-17T03:32:38.540Z,95320.13
2022-09-17T03:35:05.405Z,95326.28
2022-09-17T03:37:33.221Z,95333.69
2022-09-17T03:40:00.136Z,95342.50
2022-09-17T03:42:26.871Z,95348.47
2022-09-17T03:44:53.526Z,95342.06
2022-09-17T03:47:20.145Z,95341.25
2022-09-17T03:49:46.842Z,95356.25
2022-09-17T03:52:13.453Z,95339.38
2022-09-17T03:54:40.141Z,95350.25
2022-09-17T03:57:06.776Z,95357.00
2022-09-17T03:59:33.405Z,95357.00
2022-09-17T04:02:00.195Z,95353.72
2022-09-17T04:04:26.934Z,95349.22
2022-09-17T04:06:54.652Z,95351.25
2022-09-17T04:09:21.277Z,95346.53
2022-09-17T04:11:47.924Z,95356.59
2022-09-17T04:14:14.540Z,95344.28
2022-09-17T04:16:41.238Z,95330.91
2022-09-17T04:19:07.987Z,95308.44
2022-09-17T04:21:34.638Z,95287.31
2022-09-17T04:24:01.505Z,95269.25
2022-09-17T04:26:28.148Z,95289.13
2022-09-17T04:28:54.787Z,95304.88
2022-09-17T04:31:22.766Z,95317.59
2022-09-17T04:33:49.445Z,95330.88
2022-09-17T04:36:16.397Z,95340.69
2022-09-17T04:38:43.031Z,95325.56
2022-09-17T04:41:09.755Z,95324.91
2022-09-17T04:43:36.528Z,95325.34
2022-09-17T04:46:03.147Z,95340.53
2022-09-17T04:48:29.755Z,95348.69
2022-09-17T04:50:56.385Z,95356.09
2022-09-17T04:53:23.020Z,95354.56
2022-09-17T04:55:49.650Z,95348.22
2022-09-17T04:58:16.418Z,95351.91
2022-09-17T05:00:43.319Z,95346.19
2022-09-17T05:03:10.010Z,95350.50
2022-09-17T05:05:36.685Z,95345.63
2022-09-17T05:08:03.655Z,95355.06
2022-09-17T05:10:31.275Z,95335.00
2022-09-17T05:12:57.941Z,95325.16
2022-09-17T05:15:26.110Z,95337.22
2022-09-17T05:17:52.833Z,95315.66
2022-09-17T05:20:20.179Z,95303.53
2022-09-17T05:22:49.137Z,95307.84
2022-09-17T05:25:17.231Z,95322.84
2022-09-17T05:27:44.163Z,95304.19
2022-09-17T05:30:11.992Z,95303.50
2022-09-17T05:32:39.260Z,95307.59
2022-09-17T05:35:06.197Z,95307.25
2022-09-17T05:37:33.079Z,95324.84
2022-09-17T05:39:59.800Z,95320.19
2022-09-17T05:42:26.524Z,95313.84
2022-09-17T05:44:53.175Z,95312.78
2022-09-17T05:47:19.797Z,95309.13
2022-09-17T05:49:46.476Z,95319.78
2022-09-17T05:52:13.107Z,95325.75
2022-09-17T05:54:39.824Z,95348.09
2022-09-17T05:57:06.536Z,95342.94
2022-09-17T05:59:33.474Z,95356.03
2022-09-17T06:02:00.188Z,95349.50
2022-09-17T06:04:27.702Z,95333.09
2022-09-17T06:06:56.212Z,95327.16
2022-09-17T06:09:22.932Z,95314.03
2022-09-17T06:11:49.701Z,95306.66
2022-09-17T06:14:16.437Z,95305.19
2022-09-17T06:16:43.195Z,95308.69
2022-09-17T06:19:09.841Z,95301.72
2022-09-17T06:21:36.489Z,95294.53
2022-09-17T06:24:03.508Z,95304.38
2022-09-17T06:26:30.177Z,95324.69
2022-09-17T06:29:00.085Z,95334.91
2022-09-17T06:31:26.858Z,95334.72
2022-09-17T06:33:54.238Z,95345.81
2022-09-17T06:36:20.991Z,95364.03
2022-09-17T06:38:47.616Z,95348.03
2022-09-17T06:41:15.079Z,95358.31
2022-09-17T06:43:41.793Z,95355.03
2022-09-17T06:46:10.312Z,95363.56
2022-09-17T06:48:38.387Z,95358.63
2022-09-17T06:51:07.834Z,95355.38
2022-09-17T06:53:36.767Z,95360.56
2022-09-17T06:56:06.639Z,95373.88
2022-09-17T06:58:34.695Z,95391.50
2022-09-17T07:01:02.261Z,95375.91
2022-09-17T07:03:30.455Z,95363.78
2022-09-17T07:05:57.947Z,95356.84
2022-09-17T07:08:26.072Z,95360.78
2022-09-17T07:10:56.382Z,95372.06
2022-09-17T07:13:23.481Z,95362.44
2022-09-17T07:15:59.478Z,95369.28
2022-09-17T07:18:26.577Z,95369.66
2022-09-17T07:20:58.462Z,95358.09
2022-09-17T07:23:27.733Z,95352.97
2022-09-17T07:25:59.335Z,95364.53
2022-09-17T07:28:27.025Z,95376.44
2022-09-17T07:30:54.054Z,95378.53
2022-09-17T07:33:24.508Z,95385.75
2022-09-17T07:35:56.593Z,95384.97
2022-09-17T07:38:24.269Z,95390.91
2022-09-17T07:41:15.692Z,95395.31
2022-09-17T07:43:43.451Z,95396.31
2022-09-17T07:46:19.317Z,95408.38
2022-09-17T07:48:47.967Z,95402.41
2022-09-17T07:51:25.746Z,95400.81
2022-09-17T07:53:58.076Z,95405.84
2022-09-17T07:56:26.464Z,95406.69
2022-09-17T07:58:53.752Z,95411.63
2022-09-17T08:01:23.289Z,95409.63
2022-09-17T08:03:52.209Z,95401.63
2022-09-17T08:06:26.162Z,95399.59
2022-09-17T08:08:52.886Z,95398.94
2022-09-17T08:14:11.667Z,95400.47
2022-09-17T08:16:38.446Z,95389.41
2022-09-17T08:19:05.090Z,95389.03
2022-09-17T08:21:31.795Z,95396.00
2022-09-17T08:23:58.795Z,95404.25
2022-09-17T08:26:25.537Z,95415.75
2022-09-17T08:28:56.799Z,95425.41
2022-09-17T08:31:26.666Z,95439.81
2022-09-17T08:33:53.371Z,95454.53
2022-09-17T08:36:22.755Z,95461.53
2022-09-17T08:38:53.359Z,95466.22
2022-09-17T08:41:35.509Z,95467.44
2022-09-17T08:44:02.162Z,95468.53
2022-09-17T08:46:33.286Z,95456.81
2022-09-17T08:49:37.318Z,95442.91
2022-09-17T08:52:24.001Z,95440.44
2022-09-17T08:55:11.935Z,95417.00
2022-09-17T08:57:47.343Z,95415.75
2022-09-17T09:00:19.081Z,95412.47
2022-09-17T09:03:05.151Z,95420.25
2022-09-17T09:05:36.556Z,95431.50
2022-09-17T09:08:16.823Z,95421.63
2022-09-17T09:10:55.515Z,95417.91
2022-09-17T09:13:25.169Z,95420.47
2022-09-17T09:16:06.379Z,95415.09
2022-09-17T09:18:39.017Z,95410.97
2022-09-17T09:21:27.837Z,95415.47
2022-09-17T09:24:06.716Z,95429.44
2022-09-17T09:27:19.101Z,95417.13
2022-09-17T09:30:03.929Z,95413.19
2022-09-17T09:32:58.878Z,95409.91
2022-09-17T09:35:30.064Z,95406.72
2022-09-17T09:38:05.956Z,95406.22
2022-09-17T09:40:46.777Z,95405.03
2022-09-17T09:43:53.040Z,95401.94
2022-09-17T09:46:27.355Z,95388.34
2022-09-17T09:49:24.628Z,95375.28
2022-09-17T09:52:12.509Z,95372.63
2022-09-17T09:54:52.939Z,95377.81
2022-09-17T09:57:34.871Z,95371.69
2022-09-17T10:00:33.074Z,95360.50
2022-09-17T10:03:09.777Z,95353.16
2022-09-17T10:05:37.694Z,95340.72
2022-09-17T10:08:14.814Z,95322.50
2022-09-17T10:11:01.551Z,95330.56
2022-09-17T10:13:31.077Z,95347.22
2022-09-17T10:16:07.971Z,95341.94
2022-09-17T10:18:34.669Z,95348.38
2022-09-17T10:21:01.548Z,95351.66
2022-09-17T10:23:31.873Z,95353.09
2022-09-17T10:25:58.548Z,95355.16
2022-09-17T10:28:44.567Z,95341.66
2022-09-17T10:31:11.633Z,95346.19
2022-09-17T10:34:00.762Z,95331.41
2022-09-17T10:36:45.691Z,95339.88
2022-09-17T10:39:48.726Z,95358.38
2022-09-17T10:42:17.288Z,95361.06
2022-09-17T10:45:04.345Z,95370.13
2022-09-17T10:47:36.744Z,95368.91
2022-09-17T10:50:17.542Z,95375.06
2022-09-17T10:52:50.168Z,95373.44
2022-09-17T10:55:43.098Z,95374.88
2022-09-17T10:58:24.198Z,95375.94
2022-09-17T11:01:02.754Z,95376.34
2022-09-17T11:03:53.918Z,95380.81
2022-09-17T11:07:02.041Z,95378.75
2022-09-17T11:10:02.605Z,95362.97
2022-09-17T11:12:44.527Z,95347.97
2022-09-17T11:15:23.581Z,95340.13
2022-09-17T11:18:18.507Z,95330.91
2022-09-17T11:21:05.263Z,95331.94
2022-09-17T11:23:43.911Z,95322.50
2022-09-17T11:26:39.323Z,95316.97
2022-09-17T11:29:08.954Z,95322.69
2022-09-17T11:31:55.671Z,95311.41
2022-09-17T11:34:46.394Z,95312.22
2022-09-17T11:37:23.372Z,95312.84
2022-09-17T11:39:55.361Z,95307.09
2022-09-17T11:42:45.752Z,95308.31
2022-09-17T11:45:20.288Z,95287.97
2022-09-17T11:47:59.033Z,95286.72
2022-09-17T11:50:45.718Z,95266.19
2022-09-17T11:53:25.745Z,95255.28
2022-09-17T11:56:16.137Z,95253.84
2022-09-17T11:58:54.170Z,95258.38
2022-09-17T12:01:37.186Z,95252.63
2022-09-17T12:04:40.824Z,95255.88
2022-09-17T12:07:22.471Z,95248.69
2022-09-17T12:09:55.387Z,95242.34
2022-09-17T12:12:48.342Z,95232.88
2022-09-17T12:15:21.632Z,95223.22
2022-09-17T12:18:20.494Z,95233.88
2022-09-17T12:20:47.969Z,95248.03
2022-09-17T12:23:18.940Z,95255.88
2022-09-17T12:26:09.035Z,95256.25
2022-09-17T12:28:44.360Z,95261.41
2022-09-17T12:31:43.364Z,95261.22
2022-09-17T12:34:36.752Z,95268.00
2022-09-17T12:37:09.587Z,95257.72
2022-09-17T12:40:03.463Z,95265.72
2022-09-17T12:42:56.251Z,95255.47
2022-09-17T12:45:35.078Z,95242.31
2022-09-17T12:48:44.388Z,95230.41
2022-09-17T12:51:26.274Z,95224.44
2022-09-17T12:54:16.884Z,95236.13
2022-09-17T12:57:24.605Z,95259.56
2022-09-17T13:00:05.260Z,95275.56
2022-09-17T13:02:40.365Z,95280.69
2022-09-17T13:05:35.717Z,95288.28
2022-09-17T13:08:47.080Z,95289.13
2022-09-17T13:11:41.858Z,95283.75
2022-09-17T13:14:26.829Z,95287.00
2022-09-17T13:16:56.706Z,95285.19
2022-09-17T13:19:52.898Z,95282.09
2022-09-17T13:22:21.903Z,95271.84
2022-09-17T13:25:03.365Z,95282.09
2022-09-17T13:27:31.018Z,95274.72
2022-09-17T13:29:58.549Z,95277.13
2022-09-17T13:32:34.719Z,95293.34
2022-09-17T13:35:10.608Z,95292.34
2022-09-17T13:37:44.432Z,95304.03
2022-09-17T13:40:23.182Z,95312.41
2022-09-17T13:42:55.591Z,95315.72
2022-09-17T13:45:24.404Z,95315.06
2022-09-17T13:47:54.219Z,95323.88
2022-09-17T13:50:33.083Z,95319.81
2022-09-17T13:53:08.453Z,95309.13
2022-09-17T13:55:38.985Z,95301.56
2022-09-17T13:58:10.280Z,95297.22
2022-09-17T14:00:56.908Z,95306.84
2022-09-17T14:03:37.282Z,95298.78
2022-09-17T14:06:11.009Z,95297.38
2022-09-17T14:08:43.641Z,95290.38
2022-09-17T14:11:25.315Z,95277.06
2022-09-17T14:14:08.996Z,95275.22
2022-09-17T14:16:46.426Z,95271.72
2022-09-17T14:19:15.953Z,95272.34
2022-09-17T14:21:44.538Z,95265.19
2022-09-17T14:24:22.561Z,95266.84
2022-09-17T14:27:01.234Z,95256.75
2022-09-17T14:29:30.635Z,95254.06
2022-09-17T14:31:57.873Z,95251.03
2022-09-17T14:34:27.158Z,95253.91
2022-09-17T14:36:55.176Z,95249.19
2022-09-17T14:39:24.251Z,95244.66
2022-09-17T14:41:52.956Z,95238.50
2022-09-17T14:44:21.881Z,95239.56
2022-09-17T14:47:13.403Z,95229.53
2022-09-17T14:49:41.057Z,95228.47
2022-09-17T14:52:31.692Z,95224.56
2022-09-17T14:55:18.153Z,95233.59
2022-09-17T14:58:04.835Z,95227.88
2022-09-17T15:00:35.374Z,95228.09
2022-09-17T15:03:02.203Z,95230.56
2022-09-17T15:05:42.501Z,95236.50
2022-09-17T15:08:16.095Z,95231.59
2022-09-17T15:10:55.459Z,95235.69
2022-09-17T15:13:28.248Z,95240.38
2022-09-17T15:16:01.069Z,95240.00
2022-09-17T15:18:38.471Z,95251.25
2022-09-17T15:21:22.104Z,95240.38
2022-09-17T15:23:51.796Z,95249.63
2022-09-17T15:26:27.098Z,95247.97
2022-09-17T15:28:56.013Z,95254.97
2022-09-17T15:31:23.626Z,95253.53
2022-09-17T15:33:50.892Z,95246.91
2022-09-17T15:36:27.468Z,95238.53
2022-09-17T15:38:54.729Z,95254.91
2022-09-17T15:41:35.562Z,95252.44
2022-09-17T15:44:29.206Z,95258.09
2022-09-17T15:47:52.393Z,95250.91
2022-09-17T15:50:20.893Z,95252.06
2022-09-17T15:52:48.591Z,95258.16
2022-09-17T15:55:58.819Z,95255.28
2022-09-17T15:58:37.143Z,95250.72
2022-09-17T16:01:15.768Z,95251.31
2022-09-17T16:03:43.570Z,95251.88
2022-09-17T16:06:19.477Z,95257.41
2022-09-17T16:08:48.661Z,95264.34
2022-09-17T16:11:19.882Z,95269.25
2022-09-17T16:13:47.530Z,95266.31
2022-09-17T16:16:18.239Z,95255.81
2022-09-17T16:18:45.138Z,95272.00
2022-09-17T16:21:13.269Z,95274.06
2022-09-17T16:23:40.288Z,95276.81
2022-09-17T16:26:10.570Z,95267.78
2022-09-17T16:28:37.343Z,95280.69
2022-09-17T16:31:05.769Z,95283.09
2022-09-17T16:33:32.740Z,95282.56
2022-09-17T16:35:59.755Z,95288.22
2022-09-17T16:38:26.587Z,95285.09
2022-09-17T16:40:53.247Z,95285.50
2022-09-17T16:43:19.872Z,95291.22
2022-09-17T16:46:03.300Z,95293.59
2022-09-17T16:48:30.004Z,95296.00
2022-09-17T16:50:56.646Z,95286.13
2022-09-17T16:53:23.348Z,95286.50
2022-09-17T16:55:49.948Z,95288.16
2022-09-17T16:58:16.630Z,95286.88
2022-09-17T17:00:44.854Z,95291.38
2022-09-17T17:03:13.472Z,95287.34
2022-09-17T17:05:40.707Z,95285.22
2022-09-17T17:08:09.145Z,95290.28
2022-09-17T17:10:38.381Z,95288.78
2022-09-17T17:13:05.505Z,95297.28
2022-09-17T17:15:32.671Z,95306.03
2022-09-17T17:17:59.342Z,95310.91
2022-09-17T17:20:26.090Z,95306.97
2022-09-17T17:22:52.993Z,95318.59
2022-09-17T17:25:19.717Z,95316.31
2022-09-17T17:27:46.428Z,95317.13
2022-09-17T17:30:17.562Z,95319.16
2022-09-17T17:32:49.175Z,95324.50
2022-09-17T17:35:16.097Z,95327.31
2022-09-17T17:37:42.749Z,95327.25
2022-09-17T17:40:10.388Z,95329.25
2022-09-17T17:42:38.355Z,95326.66
2022-09-17T17:45:06.536Z,95325.91
2022-09-17T17:47:33.488Z,95344.91
2022-09-17T17:50:00.283Z,95341.13
2022-09-17T17:52:27.728Z,95334.16
2022-09-17T17:54:54.434Z,95340.84
2022-09-17T17:57:21.141Z,95339.75
2022-09-17T17:59:47.792Z,95349.09
2022-09-17T18:02:14.602Z,95353.41
2022-09-17T18:04:41.348Z,95353.31
2022-09-17T18:07:08.041Z,95365.63
2022-09-17T18:09:34.819Z,95367.00
2022-09-17T18:12:01.640Z,95385.50
2022-09-17T18:14:28.333Z,95394.19
2022-09-17T18:16:55.093Z,95395.75
2022-09-17T18:19:21.690Z,95409.59
2022-09-17T18:21:48.353Z,95407.19
2022-09-17T18:24:15.003Z,95402.78
2022-09-17T18:26:41.641Z,95410.06
2022-09-17T18:29:08.529Z,95414.00
2022-09-17T18:31:37.837Z,95410.06
2022-09-17T18:34:11.754Z,95416.19
2022-09-17T18:36:39.730Z,95417.22
2022-09-17T18:39:52.876Z,95428.00
2022-09-17T18:41:54.994Z,95424.69
2022-09-17T18:44:22.469Z,95427.72
2022-09-17T18:46:51.141Z,95428.72
2022-09-17T18:49:18.063Z,95429.09
2022-09-17T18:51:44.657Z,95434.72
2022-09-17T18:54:12.940Z,95426.13
2022-09-17T18:56:41.577Z,95432.44
2022-09-17T18:59:08.912Z,95437.25
2022-09-17T19:01:36.039Z,95440.09
2022-09-17T19:04:03.422Z,95436.63
2022-09-17T19:06:31.914Z,95447.81
2022-09-17T19:09:03.216Z,95454.66
2022-09-17T19:11:30.370Z,95457.13
2022-09-17T19:13:57.120Z,95453.47
2022-09-17T19:16:23.874Z,95457.78
2022-09-17T19:18:50.652Z,95469.53
2022-09-17T19:21:21.774Z,95470.72
2022-09-17T19:23:51.025Z,95469.06
2022-09-17T19:26:23.183Z,95465.75
2022-09-17T19:29:00.558Z,95470.53
2022-09-17T19:31:27.795Z,95471.88
2022-09-17T19:33:55.491Z,95467.75
2022-09-17T19:36:22.112Z,95485.69
2022-09-17T19:38:49.411Z,95476.72
2022-09-17T19:41:18.894Z,95483.69
2022-09-17T19:43:46.633Z,95484.53
2022-09-17T19:46:18.679Z,95480.69
2022-09-17T19:48:49.549Z,95481.16
2022-09-17T19:51:17.568Z,95478.28
2022-09-17T19:53:44.474Z,95481.59
2022-09-17T19:56:13.363Z,95479.97
2022-09-17T19:58:40.359Z,95478.31
2022-09-17T20:01:07.277Z,95474.38
2022-09-17T20:03:33.936Z,95468.25
2022-09-17T20:06:06.744Z,95469.09
2022-09-17T20:08:35.907Z,95466.13
2022-09-17T20:11:07.924Z,95469.94
2022-09-17T20:13:34.773Z,95471.94
2022-09-17T20:16:05.331Z,95471.44
2022-09-17T20:18:32.547Z,95477.41
2022-09-17T20:20:59.249Z,95476.25
2022-09-17T20:23:31.071Z,95495.69
2022-09-17T20:25:57.827Z,95497.00
2022-09-17T20:28:24.506Z,95493.34
2022-09-17T20:31:00.188Z,95503.44
2022-09-17T20:33:28.130Z,95502.56
2022-09-17T20:36:02.475Z,95495.44
2022-09-17T20:39:10.088Z,95496.91
2022-09-17T20:41:18.215Z,95501.09
2022-09-17T20:43:47.996Z,95496.63
2022-09-17T20:46:15.737Z,95511.88
2022-09-17T20:48:43.367Z,95507.25
2022-09-17T20:51:16.142Z,95520.34
2022-09-17T20:53:43.773Z,95525.78
2022-09-17T20:56:16.277Z,95535.38
2022-09-17T20:58:53.545Z,95536.69
2022-09-17T21:01:32.989Z,95532.59
2022-09-17T21:04:01.489Z,95536.69
2022-09-17T21:06:35.812Z,95526.97
2022-09-17T21:09:03.253Z,95525.47
2022-09-17T21:11:31.467Z,95523.84
2022-09-17T21:14:00.093Z,95546.44
2022-09-17T21:16:27.774Z,95549.22
2022-09-17T21:18:59.165Z,95550.22
2022-09-17T21:21:26.599Z,95556.53
2022-09-17T21:23:53.666Z,95549.59
2022-09-17T21:26:22.412Z,95541.34
2022-09-17T21:28:51.430Z,95548.47
2022-09-17T21:31:32.426Z,95553.00
2022-09-17T21:34:07.906Z,95551.88
2022-09-17T21:36:35.851Z,95553.34
2022-09-17T21:39:06.066Z,95545.09
2022-09-17T21:41:33.497Z,95538.94
2022-09-17T21:44:00.302Z,95545.91
2022-09-17T21:46:34.168Z,95540.28
2022-09-17T21:49:04.930Z,95544.81
2022-09-17T21:51:39.802Z,95535.00
2022-09-17T21:54:07.795Z,95551.75
2022-09-17T21:56:34.901Z,95553.25
2022-09-17T21:59:04.218Z,95558.91
2022-09-17T22:01:35.814Z,95565.69
2022-09-17T22:04:02.579Z,95555.25
2022-09-17T22:06:31.674Z,95560.72
2022-09-17T22:08:59.593Z,95567.84
2022-09-17T22:11:35.125Z,95574.81
2022-09-17T22:14:10.909Z,95569.19
2022-09-17T22:16:39.937Z,95564.19
2022-09-17T22:19:07.974Z,95556.09
2022-09-17T22:21:37.414Z,95553.75
2022-09-17T22:24:05.782Z,95543.16
2022-09-17T22:26:36.030Z,95543.31
2022-09-17T22:29:05.111Z,95553.91
2022-09-17T22:31:32.525Z,95541.50
2022-09-17T22:33:59.574Z,95555.25
2022-09-17T22:36:26.978Z,95550.28
2022-09-17T22:38:58.620Z,95550.91
2022-09-17T22:41:26.542Z,95549.59
2022-09-17T22:43:59.132Z,95550.28
2022-09-17T22:46:34.341Z,95547.44
2022-09-17T22:49:01.609Z,95543.66
2022-09-17T22:51:30.099Z,95547.44
2022-09-17T22:53:58.314Z,95542.63
2022-09-17T22:56:27.157Z,95531.72
2022-09-17T22:58:54.156Z,95547.25
2022-09-17T23:01:23.395Z,95543.75
2022-09-17T23:03:52.550Z,95532.00
2022-09-17T23:06:24.959Z,95535.63
2022-09-17T23:08:52.421Z,95539.59
2022-09-17T23:11:21.773Z,95552.84
2022-09-17T23:13:50.598Z,95543.91
2022-09-17T23:16:18.254Z,95539.28
2022-09-17T23:18:45.015Z,95540.25
2022-09-17T23:21:14.139Z,95541.41
2022-09-17T23:23:42.487Z,95545.16
2022-09-17T23:26:12.417Z,95542.34
2022-09-17T23:28:39.840Z,95534.56
2022-09-17T23:31:15.222Z,95534.56
2022-09-17T23:33:42.548Z,95548.78
2022-09-17T23:36:15.004Z,95543.16
2022-09-17T23:38:44.689Z,95558.47
2022-09-17T23:41:15.472Z,95553.16
2022-09-17T23:43:43.531Z,95562.28
2022-09-17T23:46:10.498Z,95555.53
2022-09-17T23:48:37.304Z,95569.22
2022-09-17T23:51:05.202Z,95568.25
2022-09-17T23:53:33.355Z,95575.84
2022-09-17T23:56:03.372Z,95572.91
2022-09-17T23:58:31.377Z,95568.28
